Time;durP1;ratioP1;P1;durP2;ratioP2;P2;SDS_P1;SDS_P2;PMS_P1;PMS_P2;Temp;Humidity;BMP_temperature;BMP_pressure;BME280_temperature;BME280_humidity;BME280_pressure;Samples;Min_cycle;Max_cycle;Signal;HPM_P1;HPM_P2
2022/10/15 00:00:14;;;;;;;148.50;59.30;;;;;;;;;;4952586;28;20047;-69
2022/10/15 00:02:42;;;;;;;133.48;54.47;;;;;;;;;;4967124;28;20058;-69
2022/10/15 00:05:09;;;;;;;144.50;54.67;;;;;;;;;;4966573;28;20524;-69
2022/10/15 00:07:38;;;;;;;169.30;58.95;;;;;;;;;;4947356;28;20058;-69
2022/10/15 00:10:05;;;;;;;126.15;54.00;;;;;;;;;;4966477;28;20043;-69
2022/10/15 00:12:32;;;;;;;145.77;58.00;;;;;;;;;;4962483;28;20047;-69
2022/10/15 00:15:00;;;;;;;153.85;59.33;;;;;;;;;;4965968;28;20157;-69
2022/10/15 00:17:27;;;;;;;139.25;55.88;;;;;;;;;;4968273;28;20077;-69
2022/10/15 00:19:54;;;;;;;133.73;55.10;;;;;;;;;;4966923;28;20183;-70
2022/10/15 00:22:21;;;;;;;142.48;55.08;;;;;;;;;;4960427;28;20047;-69
2022/10/15 00:24:50;;;;;;;139.20;57.42;;;;;;;;;;4966210;28;20540;-69
2022/10/15 00:27:17;;;;;;;140.88;56.63;;;;;;;;;;4963796;28;20058;-69
2022/10/15 00:29:44;;;;;;;181.32;63.38;;;;;;;;;;4965307;28;20050;-69
2022/10/15 00:32:12;;;;;;;152.52;59.83;;;;;;;;;;4960494;28;20050;-69
2022/10/15 00:34:39;;;;;;;135.40;57.75;;;;;;;;;;4964335;28;20055;-69
2022/10/15 00:37:06;;;;;;;138.13;56.20;;;;;;;;;;4965553;28;20054;-68
2022/10/15 00:39:33;;;;;;;155.07;60.65;;;;;;;;;;4950958;28;20571;-70
2022/10/15 00:42:02;;;;;;;142.70;60.92;;;;;;;;;;4966782;28;20054;-70
2022/10/15 00:44:49;;;;;;;138.70;57.97;;;;;;;;;;4964168;28;20053;-69
2022/10/15 00:47:18;;;;;;;140.65;58.08;;;;;;;;;;4948561;28;20050;-69
2022/10/15 00:49:48;;;;;;;153.82;62.53;;;;;;;;;;4960001;28;20057;-69
2022/10/15 00:52:17;;;;;;;143.43;59.72;;;;;;;;;;4966978;28;20131;-69
2022/10/15 00:54:46;;;;;;;143.30;58.60;;;;;;;;;;4962737;28;20059;-69
2022/10/15 00:57:15;;;;;;;153.32;59.15;;;;;;;;;;4966428;28;20065;-69
2022/10/15 00:59:45;;;;;;;158.15;59.42;;;;;;;;;;4966454;28;20517;-69
2022/10/15 01:02:13;;;;;;;163.23;64.15;;;;;;;;;;4962827;28;20051;-69
2022/10/15 01:04:41;;;;;;;158.70;61.10;;;;;;;;;;4959903;28;20058;-69
2022/10/15 01:07:09;;;;;;;144.10;56.05;;;;;;;;;;4964952;28;20058;-69
2022/10/15 01:09:36;;;;;;;149.25;57.10;;;;;;;;;;4958183;28;20117;-69
2022/10/15 01:12:04;;;;;;;162.95;56.25;;;;;;;;;;4963930;28;20066;-69
2022/10/15 01:14:36;;;;;;;144.50;54.28;;;;;;;;;;4959779;28;20522;-69
2022/10/15 01:17:05;;;;;;;139.50;52.55;;;;;;;;;;4963961;28;20054;-69
2022/10/15 01:19:41;;;;;;;134.82;51.75;;;;;;;;;;4966761;28;20502;-69
2022/10/15 01:22:11;;;;;;;132.77;51.17;;;;;;;;;;4964022;28;20058;-69
2022/10/15 01:24:44;;;;;;;126.47;49.22;;;;;;;;;;4965858;28;20058;-69
2022/10/15 01:27:32;;;;;;;128.23;50.30;;;;;;;;;;4953380;28;20055;-70
2022/10/15 01:30:14;;;;;;;136.88;51.72;;;;;;;;;;4960006;28;20043;-69
2022/10/15 01:32:45;;;;;;;133.95;51.35;;;;;;;;;;4960886;28;20054;-69
2022/10/15 01:35:15;;;;;;;133.63;51.08;;;;;;;;;;4966936;28;20121;-69
2022/10/15 01:37:46;;;;;;;138.57;51.42;;;;;;;;;;4948555;28;20063;-70
2022/10/15 01:40:15;;;;;;;126.13;49.25;;;;;;;;;;4964380;28;20057;-70
2022/10/15 01:42:46;;;;;;;134.80;50.97;;;;;;;;;;4965406;28;20043;-69
2022/10/15 01:45:15;;;;;;;116.47;48.20;;;;;;;;;;4957281;28;20070;-69
2022/10/15 01:47:47;;;;;;;127.43;49.00;;;;;;;;;;4957521;28;20047;-69
2022/10/15 01:50:15;;;;;;;120.90;47.03;;;;;;;;;;4960079;28;20055;-69
2022/10/15 01:52:44;;;;;;;125.82;47.85;;;;;;;;;;4965415;28;20406;-69
2022/10/15 01:55:13;;;;;;;125.15;47.50;;;;;;;;;;4958918;28;20051;-69
2022/10/15 01:57:42;;;;;;;114.60;46.47;;;;;;;;;;4965541;28;20046;-69
2022/10/15 02:00:10;;;;;;;104.38;45.45;;;;;;;;;;4966010;28;20454;-69
2022/10/15 02:02:37;;;;;;;112.97;46.03;;;;;;;;;;4962496;28;20043;-69
2022/10/15 02:05:07;;;;;;;108.70;44.67;;;;;;;;;;4946120;28;20066;-69
2022/10/15 02:07:40;;;;;;;104.18;44.60;;;;;;;;;;4948591;28;20051;-69
2022/10/15 02:10:10;;;;;;;103.10;43.75;;;;;;;;;;4964822;28;20082;-69
2022/10/15 02:12:44;;;;;;;109.07;43.35;;;;;;;;;;4962803;28;20054;-69
2022/10/15 02:15:12;;;;;;;99.50;43.08;;;;;;;;;;4963034;28;20050;-69
2022/10/15 02:17:41;;;;;;;118.25;45.30;;;;;;;;;;4965100;28;20047;-69
2022/10/15 02:20:14;;;;;;;109.82;42.40;;;;;;;;;;4964946;28;20051;-69
2022/10/15 02:22:44;;;;;;;97.18;40.15;;;;;;;;;;4964586;28;20054;-69
2022/10/15 02:25:15;;;;;;;88.10;40.65;;;;;;;;;;4967442;28;20055;-69
2022/10/15 02:27:43;;;;;;;85.15;37.10;;;;;;;;;;4967440;28;20054;-70
2022/10/15 02:30:11;;;;;;;82.38;37.90;;;;;;;;;;4968477;28;20667;-70
2022/10/15 02:32:39;;;;;;;78.90;37.80;;;;;;;;;;4966494;28;20116;-69
2022/10/15 02:35:08;;;;;;;82.25;38.15;;;;;;;;;;4955321;28;20067;-70
2022/10/15 02:37:37;;;;;;;88.43;39.17;;;;;;;;;;4968823;28;20146;-70
2022/10/15 02:40:05;;;;;;;82.30;36.38;;;;;;;;;;4969075;28;20050;-69
2022/10/15 02:42:32;;;;;;;76.65;37.63;;;;;;;;;;4965766;28;20039;-69
2022/10/15 02:44:59;;;;;;;78.45;37.08;;;;;;;;;;4968768;28;20062;-69
2022/10/15 02:47:26;;;;;;;83.53;38.50;;;;;;;;;;4968447;28;20105;-69
2022/10/15 02:49:54;;;;;;;94.45;40.72;;;;;;;;;;4961349;28;20058;-69
2022/10/15 02:52:21;;;;;;;85.82;39.58;;;;;;;;;;4969386;28;20805;-69
2022/10/15 02:54:49;;;;;;;90.63;41.15;;;;;;;;;;4964981;28;20043;-69
2022/10/15 02:57:17;;;;;;;86.82;40.83;;;;;;;;;;4967640;28;20058;-69
2022/10/15 02:59:44;;;;;;;90.00;42.45;;;;;;;;;;4947965;28;20391;-69
2022/10/15 03:02:11;;;;;;;94.03;41.80;;;;;;;;;;4968198;28;20143;-69
2022/10/15 03:04:39;;;;;;;89.43;40.22;;;;;;;;;;4969409;28;20058;-69
2022/10/15 03:07:06;;;;;;;87.60;40.60;;;;;;;;;;4958767;28;20062;-69
2022/10/15 03:09:33;;;;;;;100.65;42.80;;;;;;;;;;4950768;28;20694;-69
2022/10/15 03:12:02;;;;;;;98.40;42.45;;;;;;;;;;4945213;28;20055;-70
2022/10/15 03:14:29;;;;;;;112.80;45.85;;;;;;;;;;4960788;28;20166;-69
2022/10/15 03:16:56;;;;;;;103.80;45.05;;;;;;;;;;4967377;28;20054;-69
2022/10/15 03:19:23;;;;;;;104.35;46.08;;;;;;;;;;4968481;28;20684;-69
2022/10/15 03:21:50;;;;;;;106.63;44.90;;;;;;;;;;4968807;28;20046;-70
2022/10/15 03:24:18;;;;;;;101.70;43.50;;;;;;;;;;4947880;28;20055;-69
2022/10/15 03:26:45;;;;;;;119.95;48.53;;;;;;;;;;4951036;28;20506;-69
2022/10/15 03:29:13;;;;;;;115.80;46.55;;;;;;;;;;4965968;28;20058;-69
2022/10/15 03:31:41;;;;;;;114.50;47.30;;;;;;;;;;4956012;28;20053;-69
2022/10/15 03:34:08;;;;;;;111.50;47.80;;;;;;;;;;4967922;28;20046;-69
2022/10/15 03:36:35;;;;;;;104.38;45.38;;;;;;;;;;4965661;28;20430;-69
2022/10/15 03:39:02;;;;;;;116.45;47.50;;;;;;;;;;4968022;28;20118;-69
2022/10/15 03:41:30;;;;;;;107.90;45.55;;;;;;;;;;4966043;28;20472;-69
2022/10/15 03:44:01;;;;;;;105.43;43.10;;;;;;;;;;4968603;28;20051;-69
2022/10/15 03:46:29;;;;;;;107.90;45.63;;;;;;;;;;4965562;28;20121;-69
2022/10/15 03:48:56;;;;;;;108.28;45.30;;;;;;;;;;4967613;28;20070;-69
2022/10/15 03:51:24;;;;;;;98.57;44.05;;;;;;;;;;4959643;28;20110;-69
2022/10/15 03:53:51;;;;;;;101.57;44.63;;;;;;;;;;4948096;28;20406;-69
2022/10/15 03:56:18;;;;;;;105.07;44.17;;;;;;;;;;4965880;28;20134;-69
2022/10/15 03:58:45;;;;;;;104.22;45.05;;;;;;;;;;4967175;28;20059;-69
2022/10/15 04:01:13;;;;;;;114.05;46.33;;;;;;;;;;4966759;28;20065;-69
2022/10/15 04:03:42;;;;;;;116.00;48.88;;;;;;;;;;4967607;28;20510;-69
2022/10/15 04:06:09;;;;;;;116.20;45.97;;;;;;;;;;4964560;28;20054;-69
2022/10/15 04:08:36;;;;;;;113.70;46.67;;;;;;;;;;4943006;28;20054;-69
2022/10/15 04:11:04;;;;;;;117.38;50.15;;;;;;;;;;4966670;28;20050;-69
2022/10/15 04:13:31;;;;;;;129.45;51.08;;;;;;;;;;4965634;28;20482;-68
2022/10/15 04:15:58;;;;;;;134.95;52.22;;;;;;;;;;4962444;28;20067;-69
2022/10/15 04:18:25;;;;;;;134.98;51.75;;;;;;;;;;4950058;28;20062;-69
2022/10/15 04:20:54;;;;;;;156.88;52.45;;;;;;;;;;4965660;28;20047;-69
2022/10/15 04:23:21;;;;;;;141.23;52.80;;;;;;;;;;4967348;28;20088;-69
2022/10/15 04:25:48;;;;;;;129.30;50.10;;;;;;;;;;4962461;28;20410;-68
2022/10/15 04:28:16;;;;;;;122.32;50.30;;;;;;;;;;4964986;28;20105;-69
2022/10/15 04:30:43;;;;;;;120.55;48.70;;;;;;;;;;4963692;28;20377;-69
2022/10/15 04:33:10;;;;;;;124.40;52.05;;;;;;;;;;4966556;28;20046;-69
2022/10/15 04:35:37;;;;;;;121.15;49.63;;;;;;;;;;4967356;28;20058;-69
2022/10/15 04:38:06;;;;;;;130.55;54.08;;;;;;;;;;4966901;28;20162;-68
2022/10/15 04:40:34;;;;;;;130.48;50.72;;;;;;;;;;4966017;28;20051;-69
2022/10/15 04:43:01;;;;;;;139.02;52.35;;;;;;;;;;4966673;28;20047;-69
2022/10/15 04:45:28;;;;;;;125.43;51.70;;;;;;;;;;4967714;28;20096;-70
2022/10/15 04:47:57;;;;;;;140.75;53.10;;;;;;;;;;4962211;28;20065;-69
2022/10/15 04:50:24;;;;;;;132.68;52.20;;;;;;;;;;4963172;28;20055;-69
2022/10/15 04:52:51;;;;;;;126.00;51.70;;;;;;;;;;4965118;28;20128;-69
2022/10/15 04:55:20;;;;;;;132.05;52.28;;;;;;;;;;4965237;28;20200;-69
2022/10/15 04:57:47;;;;;;;142.25;54.25;;;;;;;;;;4951091;28;20050;-69
2022/10/15 05:00:14;;;;;;;137.00;53.40;;;;;;;;;;4965359;28;20660;-69
2022/10/15 05:02:42;;;;;;;135.95;52.47;;;;;;;;;;4962086;28;20045;-68
2022/10/15 05:05:10;;;;;;;142.43;54.03;;;;;;;;;;4957817;28;20186;-69
2022/10/15 05:07:37;;;;;;;142.60;53.15;;;;;;;;;;4945396;28;20113;-69
2022/10/15 05:10:04;;;;;;;147.93;56.22;;;;;;;;;;4964148;28;20050;-69
2022/10/15 05:12:33;;;;;;;147.13;56.25;;;;;;;;;;4963679;28;20055;-69
2022/10/15 05:15:00;;;;;;;148.48;56.90;;;;;;;;;;4952783;28;20058;-69
2022/10/15 05:17:27;;;;;;;152.40;56.38;;;;;;;;;;4965250;28;20065;-69
2022/10/15 05:19:55;;;;;;;147.57;56.83;;;;;;;;;;4964124;28;20047;-69
2022/10/15 05:22:22;;;;;;;151.70;57.00;;;;;;;;;;4945258;28;20070;-69
2022/10/15 05:24:49;;;;;;;158.15;59.25;;;;;;;;;;4953218;28;21192;-69
2022/10/15 05:27:16;;;;;;;160.00;59.10;;;;;;;;;;4964749;28;20054;-69
2022/10/15 05:29:45;;;;;;;152.82;58.90;;;;;;;;;;4963216;28;20065;-69
2022/10/15 05:32:14;;;;;;;165.57;60.05;;;;;;;;;;4962592;28;20078;-69
2022/10/15 05:34:41;;;;;;;163.30;57.45;;;;;;;;;;4964622;28;20058;-69
2022/10/15 05:37:08;;;;;;;174.50;61.33;;;;;;;;;;4945399;28;20062;-69
2022/10/15 05:39:35;;;;;;;169.75;62.00;;;;;;;;;;4964089;28;20054;-69
2022/10/15 05:42:03;;;;;;;165.30;59.13;;;;;;;;;;4966678;28;20053;-70
2022/10/15 05:44:30;;;;;;;169.43;61.40;;;;;;;;;;4948428;28;20812;-70
2022/10/15 05:46:58;;;;;;;184.27;63.25;;;;;;;;;;4965803;28;20066;-70
2022/10/15 05:49:26;;;;;;;170.32;60.40;;;;;;;;;;4965310;28;20542;-69
2022/10/15 05:51:53;;;;;;;165.27;62.90;;;;;;;;;;4964351;28;20062;-70
2022/10/15 05:54:20;;;;;;;164.63;60.95;;;;;;;;;;4965428;28;20057;-71
2022/10/15 05:56:47;;;;;;;165.38;60.60;;;;;;;;;;4965904;28;20494;-70
2022/10/15 05:59:15;;;;;;;149.25;58.15;;;;;;;;;;4963320;28;20207;-70
2022/10/15 06:01:42;;;;;;;151.30;57.78;;;;;;;;;;4965993;28;20424;-70
2022/10/15 06:04:11;;;;;;;151.18;58.90;;;;;;;;;;4965990;28;20076;-70
2022/10/15 06:06:38;;;;;;;151.05;58.00;;;;;;;;;;4955398;28;20051;-70
2022/10/15 06:09:05;;;;;;;161.25;60.35;;;;;;;;;;4950822;28;20055;-70
2022/10/15 06:11:32;;;;;;;156.25;58.47;;;;;;;;;;4961811;28;20573;-70
2022/10/15 06:14:00;;;;;;;150.35;58.13;;;;;;;;;;4960895;28;20059;-70
2022/10/15 06:16:27;;;;;;;151.48;58.80;;;;;;;;;;4956956;28;20414;-70
2022/10/15 06:18:54;;;;;;;155.60;58.63;;;;;;;;;;4964217;28;20139;-69
2022/10/15 06:21:23;;;;;;;148.23;58.60;;;;;;;;;;4965937;28;20051;-70
2022/10/15 06:23:50;;;;;;;147.88;57.30;;;;;;;;;;4965411;28;20048;-70
2022/10/15 06:26:18;;;;;;;155.82;58.25;;;;;;;;;;4963315;28;20055;-71
2022/10/15 06:28:45;;;;;;;140.52;57.42;;;;;;;;;;4945449;29;20059;-69
2022/10/15 06:31:12;;;;;;;148.75;56.83;;;;;;;;;;4964602;28;20047;-70
2022/10/15 06:33:39;;;;;;;147.85;58.03;;;;;;;;;;4965811;28;20059;-70
2022/10/15 06:36:08;;;;;;;147.80;58.78;;;;;;;;;;4965499;28;20516;-70
2022/10/15 06:38:38;;;;;;;154.88;60.88;;;;;;;;;;4963775;28;20050;-72
2022/10/15 06:41:05;;;;;;;145.43;57.17;;;;;;;;;;4965368;28;20078;-71
2022/10/15 06:43:33;;;;;;;157.93;60.55;;;;;;;;;;4966576;28;20824;-70
2022/10/15 06:46:00;;;;;;;172.23;64.57;;;;;;;;;;4964707;28;20054;-71
2022/10/15 06:48:28;;;;;;;161.10;62.58;;;;;;;;;;4948986;28;20153;-70
2022/10/15 06:50:55;;;;;;;149.02;61.03;;;;;;;;;;4963560;28;20059;-70
2022/10/15 06:53:22;;;;;;;142.43;57.67;;;;;;;;;;4942968;28;20074;-71
2022/10/15 06:55:51;;;;;;;148.20;60.63;;;;;;;;;;4963484;28;20086;-69
2022/10/15 06:58:18;;;;;;;151.35;61.10;;;;;;;;;;4948866;28;20065;-71
2022/10/15 07:00:45;;;;;;;148.55;59.80;;;;;;;;;;4944866;28;20058;-70
2022/10/15 07:03:13;;;;;;;161.02;63.00;;;;;;;;;;4963256;28;20046;-69
2022/10/15 07:05:40;;;;;;;157.25;62.55;;;;;;;;;;4961916;28;20090;-71
2022/10/15 07:08:08;;;;;;;144.40;59.83;;;;;;;;;;4960033;28;20082;-73
2022/10/15 07:10:35;;;;;;;145.73;58.20;;;;;;;;;;4967787;28;20413;-72
2022/10/15 07:13:04;;;;;;;139.63;60.38;;;;;;;;;;4966167;28;20051;-70
2022/10/15 07:15:31;;;;;;;140.20;57.25;;;;;;;;;;4962852;28;20058;-71
2022/10/15 07:18:00;;;;;;;135.88;60.47;;;;;;;;;;4967991;28;20081;-70
2022/10/15 07:20:27;;;;;;;137.88;58.85;;;;;;;;;;4967499;28;20051;-70
2022/10/15 07:22:57;;;;;;;146.55;60.95;;;;;;;;;;4965919;28;20050;-70
2022/10/15 07:25:24;;;;;;;147.63;59.92;;;;;;;;;;4967065;28;20431;-70
2022/10/15 07:27:51;;;;;;;146.00;61.97;;;;;;;;;;4948713;28;20046;-69
2022/10/15 07:30:20;;;;;;;137.40;60.58;;;;;;;;;;4963939;28;20166;-71
2022/10/15 07:32:47;;;;;;;133.48;58.25;;;;;;;;;;4957556;28;20055;-69
2022/10/15 07:35:15;;;;;;;140.63;59.10;;;;;;;;;;4967870;28;20106;-70
2022/10/15 07:37:42;;;;;;;146.73;60.80;;;;;;;;;;4966291;28;20521;-70
2022/10/15 07:40:09;;;;;;;148.30;62.28;;;;;;;;;;4965129;28;20062;-72
2022/10/15 07:42:37;;;;;;;144.73;59.47;;;;;;;;;;4951152;28;20051;-71
2022/10/15 07:45:04;;;;;;;139.95;57.15;;;;;;;;;;4951347;28;20287;-70
2022/10/15 07:47:33;;;;;;;145.27;58.70;;;;;;;;;;4948781;28;20054;-71
2022/10/15 07:50:00;;;;;;;144.85;60.92;;;;;;;;;;4945259;28;20062;-70
2022/10/15 07:52:28;;;;;;;141.68;58.10;;;;;;;;;;4968932;28;20138;-70
2022/10/15 07:54:55;;;;;;;141.95;59.08;;;;;;;;;;4965385;28;20061;-70
2022/10/15 07:57:22;;;;;;;144.65;56.25;;;;;;;;;;4949353;28;20051;-71
2022/10/15 07:59:49;;;;;;;136.00;52.78;;;;;;;;;;4950280;28;20066;-70
2022/10/15 08:02:17;;;;;;;134.95;53.13;;;;;;;;;;4966387;28;20058;-70
2022/10/15 08:04:46;;;;;;;132.35;50.58;;;;;;;;;;4959639;28;20042;-72
2022/10/15 08:07:13;;;;;;;111.85;45.13;;;;;;;;;;4961097;28;20062;-70
2022/10/15 08:09:40;;;;;;;124.80;48.40;;;;;;;;;;4948020;28;20421;-70
2022/10/15 08:12:07;;;;;;;122.75;46.92;;;;;;;;;;4950101;28;20055;-70
2022/10/15 08:14:35;;;;;;;111.18;43.53;;;;;;;;;;4938601;29;20058;-71
2022/10/15 08:17:02;;;;;;;119.65;43.88;;;;;;;;;;4929052;29;20058;-70
2022/10/15 08:19:30;;;;;;;110.53;41.75;;;;;;;;;;4926970;29;20166;-70
2022/10/15 08:21:58;;;;;;;115.85;42.55;;;;;;;;;;4928795;29;20695;-70
2022/10/15 08:24:25;;;;;;;109.60;41.83;;;;;;;;;;4928990;29;20658;-70
2022/10/15 08:26:53;;;;;;;116.85;43.08;;;;;;;;;;4924818;29;20044;-70
2022/10/15 08:29:20;;;;;;;111.15;39.88;;;;;;;;;;4924926;29;20065;-70
2022/10/15 08:31:48;;;;;;;104.50;39.00;;;;;;;;;;4926783;29;20063;-70
2022/10/15 08:34:15;;;;;;;105.03;38.10;;;;;;;;;;4925743;29;20748;-71
2022/10/15 08:36:43;;;;;;;108.43;38.00;;;;;;;;;;4925354;29;20056;-70
2022/10/15 08:39:11;;;;;;;98.43;39.08;;;;;;;;;;4927402;29;20056;-72
2022/10/15 08:41:41;;;;;;;95.55;38.78;;;;;;;;;;4928980;29;20411;-70
2022/10/15 08:44:12;;;;;;;81.22;35.65;;;;;;;;;;4927636;29;20799;-71
2022/10/15 08:46:42;;;;;;;76.18;35.35;;;;;;;;;;4925851;29;20086;-71
2022/10/15 08:49:15;;;;;;;83.55;37.05;;;;;;;;;;4928392;29;20055;-72
2022/10/15 08:51:46;;;;;;;88.20;37.05;;;;;;;;;;4922535;29;20048;-70
2022/10/15 08:54:16;;;;;;;75.63;36.05;;;;;;;;;;4920205;29;20130;-71
2022/10/15 08:56:44;;;;;;;72.88;36.25;;;;;;;;;;4928239;29;20451;-70
2022/10/15 08:59:17;;;;;;;82.32;39.70;;;;;;;;;;4929183;29;20061;-70
2022/10/15 09:01:47;;;;;;;79.20;38.50;;;;;;;;;;4928716;29;20055;-70
2022/10/15 09:04:18;;;;;;;79.78;39.35;;;;;;;;;;4926859;29;20052;-69
2022/10/15 09:06:47;;;;;;;75.07;37.25;;;;;;;;;;4918620;29;20059;-70
2022/10/15 09:09:20;;;;;;;66.20;35.20;;;;;;;;;;4920624;29;20054;-71
2022/10/15 09:11:53;;;;;;;68.93;35.90;;;;;;;;;;4927672;29;20052;-70
2022/10/15 09:14:22;;;;;;;65.57;34.13;;;;;;;;;;4932791;28;20601;-69
2022/10/15 09:16:51;;;;;;;58.38;32.85;;;;;;;;;;4965615;28;20062;-70
2022/10/15 09:19:19;;;;;;;55.67;31.63;;;;;;;;;;4967505;28;20529;-71
2022/10/15 09:21:47;;;;;;;54.28;30.52;;;;;;;;;;4965759;28;20055;-69
2022/10/15 09:24:19;;;;;;;53.88;30.50;;;;;;;;;;4966326;28;20057;-70
2022/10/15 09:26:51;;;;;;;51.25;28.67;;;;;;;;;;4957359;28;20055;-70
2022/10/15 09:29:22;;;;;;;51.72;27.73;;;;;;;;;;4938892;28;20925;-70
2022/10/15 09:31:52;;;;;;;53.50;28.42;;;;;;;;;;4965525;28;20141;-70
2022/10/15 09:34:22;;;;;;;52.30;30.27;;;;;;;;;;4946703;28;20569;-71
2022/10/15 09:36:51;;;;;;;46.97;28.85;;;;;;;;;;4947630;28;20059;-70
2022/10/15 09:39:37;;;;;;;48.38;28.42;;;;;;;;;;4946644;28;20054;-72
2022/10/15 09:42:11;;;;;;;47.08;28.58;;;;;;;;;;4962429;28;20058;-70
2022/10/15 09:44:40;;;;;;;48.67;28.92;;;;;;;;;;4964774;28;20417;-70
2022/10/15 09:47:15;;;;;;;49.90;29.70;;;;;;;;;;4966810;28;20047;-70
2022/10/15 09:49:42;;;;;;;52.63;30.65;;;;;;;;;;4966320;28;20078;-70
2022/10/15 09:52:12;;;;;;;51.10;31.52;;;;;;;;;;4963252;28;20097;-70
2022/10/15 09:54:44;;;;;;;56.60;32.58;;;;;;;;;;4946191;28;20061;-70
2022/10/15 09:57:13;;;;;;;59.42;33.70;;;;;;;;;;4965480;28;20056;-70
2022/10/15 09:59:52;;;;;;;61.65;33.38;;;;;;;;;;4966033;28;20071;-70
2022/10/15 10:02:20;;;;;;;52.92;30.20;;;;;;;;;;4962610;28;20059;-71
2022/10/15 10:04:48;;;;;;;54.70;29.23;;;;;;;;;;4941331;28;20051;-70
2022/10/15 10:07:28;;;;;;;53.53;28.45;;;;;;;;;;4961516;28;20047;-70
2022/10/15 10:09:58;;;;;;;51.10;27.95;;;;;;;;;;4963412;28;20647;-70
2022/10/15 10:12:27;;;;;;;49.97;27.60;;;;;;;;;;4949293;28;20536;-70
2022/10/15 10:14:56;;;;;;;52.20;25.95;;;;;;;;;;4948252;28;20050;-70
2022/10/15 10:17:24;;;;;;;48.03;26.27;;;;;;;;;;4967011;28;20805;-71
2022/10/15 10:20:10;;;;;;;53.58;27.60;;;;;;;;;;4964750;28;20059;-71
2022/10/15 10:22:43;;;;;;;48.50;25.25;;;;;;;;;;4947449;28;20058;-70
2022/10/15 10:25:23;;;;;;;51.35;24.52;;;;;;;;;;4941958;28;20062;-70
2022/10/15 10:27:51;;;;;;;44.95;23.67;;;;;;;;;;4943500;28;20063;-70
2022/10/15 10:30:18;;;;;;;43.92;21.85;;;;;;;;;;4942388;29;20410;-70
2022/10/15 10:32:46;;;;;;;38.60;21.60;;;;;;;;;;4963404;28;20055;-72
2022/10/15 10:35:20;;;;;;;42.17;20.42;;;;;;;;;;4946655;28;20055;-70
2022/10/15 10:37:48;;;;;;;41.58;21.88;;;;;;;;;;4965074;28;20054;-71
2022/10/15 10:40:27;;;;;;;45.28;22.00;;;;;;;;;;4945733;28;20101;-71
2022/10/15 10:43:10;;;;;;;47.42;21.85;;;;;;;;;;4964173;28;20058;-71
2022/10/15 10:45:37;;;;;;;42.80;21.63;;;;;;;;;;4966768;28;20055;-70
2022/10/15 10:48:18;;;;;;;41.40;20.85;;;;;;;;;;4968229;28;20043;-71
2022/10/15 10:50:45;;;;;;;42.58;22.17;;;;;;;;;;4969326;28;20058;-70
2022/10/15 10:53:18;;;;;;;41.28;21.23;;;;;;;;;;4964583;28;20146;-70
2022/10/15 10:55:45;;;;;;;;;;;;;;;;;;4966721;28;20409;-71
2022/10/15 10:58:18;;;;;;;39.15;21.45;;;;;;;;;;4970054;28;20378;-70
2022/10/15 11:00:46;;;;;;;38.05;20.42;;;;;;;;;;4969026;28;20573;-69
2022/10/15 11:03:21;;;;;;;37.97;20.92;;;;;;;;;;4968746;28;20051;-70
2022/10/15 11:05:50;;;;;;;36.50;20.30;;;;;;;;;;4968740;28;20043;-70
2022/10/15 11:08:21;;;;;;;32.20;19.10;;;;;;;;;;4968821;28;20058;-70
2022/10/15 11:10:52;;;;;;;33.25;18.90;;;;;;;;;;4961939;28;20050;-70
2022/10/15 11:13:28;;;;;;;30.83;18.00;;;;;;;;;;4949909;28;20069;-70
2022/10/15 11:15:57;;;;;;;27.63;17.45;;;;;;;;;;4966677;28;20059;-70
2022/10/15 11:18:32;;;;;;;28.88;18.77;;;;;;;;;;4967782;28;20065;-70
2022/10/15 11:21:05;;;;;;;26.25;16.85;;;;;;;;;;4968690;28;20549;-71
2022/10/15 11:23:39;;;;;;;24.80;16.88;;;;;;;;;;4968685;28;20050;-70
2022/10/15 11:26:13;;;;;;;21.10;14.98;;;;;;;;;;4965324;28;20050;-70
2022/10/15 11:28:47;;;;;;;24.25;16.13;;;;;;;;;;4968142;28;20433;-70
2022/10/15 11:31:17;;;;;;;23.63;15.20;;;;;;;;;;4960976;28;20047;-71
2022/10/15 11:33:49;;;;;;;22.20;15.23;;;;;;;;;;4951157;28;20046;-70
2022/10/15 11:36:24;;;;;;;23.23;14.45;;;;;;;;;;4968275;28;20051;-71
2022/10/15 11:38:56;;;;;;;28.05;15.73;;;;;;;;;;4968741;28;20118;-70
2022/10/15 11:41:28;;;;;;;21.85;14.52;;;;;;;;;;4967710;28;21247;-71
2022/10/15 11:44:08;;;;;;;21.20;14.20;;;;;;;;;;4960116;28;20721;-71
2022/10/15 11:46:38;;;;;;;22.08;15.15;;;;;;;;;;4965925;28;20058;-72
2022/10/15 11:49:14;;;;;;;19.17;13.60;;;;;;;;;;4968404;28;20055;-71
2022/10/15 11:51:49;;;;;;;17.27;12.70;;;;;;;;;;4945606;28;20058;-71
2022/10/15 11:54:22;;;;;;;19.25;12.98;;;;;;;;;;4949607;28;20054;-70
2022/10/15 11:56:51;;;;;;;14.80;11.27;;;;;;;;;;4950199;28;20059;-72
2022/10/15 11:59:24;;;;;;;18.63;12.38;;;;;;;;;;4968530;28;20050;-71
2022/10/15 12:01:54;;;;;;;15.73;11.90;;;;;;;;;;4943206;28;20055;-70
2022/10/15 12:04:25;;;;;;;17.65;11.85;;;;;;;;;;4968240;28;20351;-72
2022/10/15 12:06:53;;;;;;;16.45;11.88;;;;;;;;;;4957739;28;20061;-70
2022/10/15 12:09:25;;;;;;;16.85;11.45;;;;;;;;;;4969151;28;20054;-70
2022/10/15 12:11:56;;;;;;;16.15;11.88;;;;;;;;;;4966230;28;20391;-71
2022/10/15 12:14:27;;;;;;;16.58;11.45;;;;;;;;;;4951421;28;20666;-70
2022/10/15 12:16:59;;;;;;;16.67;11.32;;;;;;;;;;4967516;28;21268;-72
2022/10/15 12:19:29;;;;;;;15.80;11.77;;;;;;;;;;4966576;28;20067;-70
2022/10/15 12:22:10;;;;;;;14.18;10.82;;;;;;;;;;4966710;28;20046;-71
2022/10/15 12:24:52;;;;;;;14.93;10.88;;;;;;;;;;4966972;28;20049;-71
2022/10/15 12:27:24;;;;;;;15.95;10.55;;;;;;;;;;4963971;28;20060;-72
2022/10/15 12:29:53;;;;;;;16.15;10.52;;;;;;;;;;4948580;28;20062;-71
2022/10/15 12:32:24;;;;;;;12.63;10.02;;;;;;;;;;4947652;28;20066;-71
2022/10/15 12:34:55;;;;;;;13.05;10.55;;;;;;;;;;4963007;28;20545;-72
2022/10/15 12:37:24;;;;;;;14.85;10.65;;;;;;;;;;4949162;28;20455;-71
2022/10/15 12:39:56;;;;;;;14.00;10.60;;;;;;;;;;4966107;28;20490;-70
2022/10/15 12:42:26;;;;;;;13.48;10.40;;;;;;;;;;4950535;28;20058;-71
2022/10/15 12:44:56;;;;;;;13.48;10.68;;;;;;;;;;4945120;28;20050;-70
2022/10/15 12:47:41;;;;;;;14.35;11.18;;;;;;;;;;4962426;28;20679;-71
2022/10/15 12:50:17;;;;;;;13.73;11.02;;;;;;;;;;4960755;28;20055;-71
2022/10/15 12:52:52;;;;;;;13.23;10.40;;;;;;;;;;4962539;28;20766;-70
2022/10/15 12:55:28;;;;;;;14.00;11.23;;;;;;;;;;4940662;28;20054;-71
2022/10/15 12:57:57;;;;;;;15.57;11.68;;;;;;;;;;4963428;28;20051;-72
2022/10/15 13:00:30;;;;;;;20.90;11.27;;;;;;;;;;4943927;28;20069;-71
2022/10/15 13:03:01;;;;;;;16.67;11.23;;;;;;;;;;4966030;28;20528;-70
2022/10/15 13:05:29;;;;;;;16.38;11.07;;;;;;;;;;4965632;28;20135;-69
2022/10/15 13:07:57;;;;;;;15.32;11.68;;;;;;;;;;4944966;28;20051;-71
2022/10/15 13:10:27;;;;;;;14.32;11.40;;;;;;;;;;4943963;28;20062;-71
2022/10/15 13:12:56;;;;;;;16.45;10.98;;;;;;;;;;4964306;28;20596;-71
2022/10/15 13:15:24;;;;;;;15.65;10.52;;;;;;;;;;4963698;28;20525;-70
2022/10/15 13:17:53;;;;;;;13.73;10.35;;;;;;;;;;4966348;28;20058;-70
2022/10/15 13:20:31;;;;;;;12.77;9.32;;;;;;;;;;4950887;28;20073;-69
2022/10/15 13:23:08;;;;;;;11.57;8.85;;;;;;;;;;4960977;28;20517;-70
2022/10/15 13:25:36;;;;;;;11.13;8.25;;;;;;;;;;4947650;28;20133;-71
2022/10/15 13:28:03;;;;;;;12.75;8.25;;;;;;;;;;4959978;28;20521;-71
2022/10/15 13:30:30;;;;;;;12.35;8.75;;;;;;;;;;4941619;28;20059;-72
2022/10/15 13:32:59;;;;;;;12.07;7.88;;;;;;;;;;4957557;28;20169;-71
2022/10/15 13:35:29;;;;;;;12.25;8.07;;;;;;;;;;4950537;28;20058;-71
2022/10/15 13:37:57;;;;;;;9.77;8.13;;;;;;;;;;4947773;28;20047;-70
2022/10/15 13:40:26;;;;;;;12.73;8.30;;;;;;;;;;4965576;28;20051;-70
2022/10/15 13:43:00;;;;;;;10.32;8.15;;;;;;;;;;4965730;28;20061;-71
2022/10/15 13:45:27;;;;;;;11.18;8.45;;;;;;;;;;4961651;28;20059;-70
2022/10/15 13:47:55;;;;;;;11.00;8.70;;;;;;;;;;4943036;28;20918;-70
2022/10/15 13:50:25;;;;;;;14.82;10.65;;;;;;;;;;4956897;28;20063;-67
2022/10/15 13:52:54;;;;;;;19.70;11.52;;;;;;;;;;4964338;28;20046;-67
2022/10/15 13:55:23;;;;;;;21.45;12.30;;;;;;;;;;4948433;28;20059;-68
2022/10/15 13:57:51;;;;;;;19.48;11.60;;;;;;;;;;4961660;28;20164;-68
2022/10/15 14:00:23;;;;;;;20.25;12.13;;;;;;;;;;4959595;28;20046;-69
2022/10/15 14:03:05;;;;;;;17.80;11.85;;;;;;;;;;4953939;28;20055;-69
2022/10/15 14:05:34;;;;;;;17.92;11.50;;;;;;;;;;4946692;28;20058;-69
2022/10/15 14:08:01;;;;;;;17.92;10.93;;;;;;;;;;4942518;28;20082;-69
2022/10/15 14:10:28;;;;;;;23.67;11.88;;;;;;;;;;4966126;28;20510;-68
2022/10/15 14:12:56;;;;;;;16.60;10.93;;;;;;;;;;4963105;28;20138;-69
2022/10/15 14:15:38;;;;;;;15.23;8.98;;;;;;;;;;4964980;28;20062;-68
2022/10/15 14:18:05;;;;;;;18.55;8.15;;;;;;;;;;4960993;28;20161;-69
2022/10/15 14:20:34;;;;;;;8.82;5.97;;;;;;;;;;4961227;28;20494;-69
2022/10/15 14:23:01;;;;;;;8.57;5.72;;;;;;;;;;4966815;28;20054;-69